Astana International Airport
UACC : now visible

Airfield :











YOU CAN JOIN US ON...

 
LOGIN :

Register | Disclaimer

   EN    FR    IT 

 









Legend :    VFR   Marginal VFR   IFR   Intensive IFR   Very Intensive IFR
Visi :
Ceiling :
>= 8 km
>= 3000ft
5 to 8 km
1000 to 3000 ft
1500m to 5 km
500 to 1000 ft
800 to 1500m
200 to 500 ft
< 800m
< 200 ft
Symbols :   Thunderstorms  Fog  Heavy snow  Heavy precipitations  Wind > 20 kt







- Airport Elevation : 1165 ft
- IATA code : TSE


UACC - Astana International

CURRENT METAR :
  • 251530Z 15004MPS CAVOK 25/18 Q1012 R22/0///70 NOSIG RMK QFE728/0970

EXPIRED METARs :
  • 251500Z 12004MPS 9999 FEW046CB BKN150 25/17 Q1012 R22/0///70 NOSIG RMK QFE728/0970
  • 251430Z 13002MPS 9999 FEW046CB BKN150 27/15 Q1012 R22/0///70 NOSIG RMK QFE728/0971
  • 251400Z 14002MPS 9999 FEW046CB BKN150 27/16 Q1012 R22/0///70 NOSIG RMK QFE728/0971
  • 251330Z 19002MPS 9999 SCT046CB BKN150 29/15 Q1013 R22/0///70 NOSIG RMK QFE728/0971
  • 251300Z 21003MPS 180V240 9999 SCT046CB BKN160 29/15 Q1012 R22/0///70 NOSIG RMK QFE728/0971

TAF TAF UACC
Valid from the 25 at 12:00 until the 26 at 12:00 UTC


251100Z 2512/2612 VRB02MPS 9999 SCT030CB BKN100 TX31/2610Z TN18/2523Z
BECMG 2518/2520 16006MPS
BECMG 2605/2607 28006MPS
TEMPO 2607/2612 VRB18MPS 3100 TSRA SQ BKN030CB
UACC FIR / Asia



MET'MAP, your aeronautical weather chart ! - Copyright ORBIFLY December 2007 - Disclaimer

ORBIFLY MET'MAP TEAM :

Programming & Development : Alexandra Zaïnal
Concept & Development : Baudouin d'Aumeries
Co-Development & Prog : Marc-Olivier Méhu
Technical & hardware support : Manuel Goepfert

Contact : metmap@orbifly.com




SOURCES & CREDITS :

   NOAA       Earth
Advisory